sensor_id;sensor_type;location;lat;lon;timestamp;P1;durP1;ratioP1;P2;durP2;ratioP2
82034;SDS011;71599;49.892;18.914;2023-07-28T00:01:52;1.73;;;1.38;;
82034;SDS011;71599;49.892;18.914;2023-07-28T00:06:53;1.73;;;1.20;;
82034;SDS011;71599;49.892;18.914;2023-07-28T00:11:56;2.50;;;1.60;;
82034;SDS011;71599;49.892;18.914;2023-07-28T00:16:58;2.13;;;1.52;;
82034;SDS011;71599;49.892;18.914;2023-07-28T00:21:59;2.90;;;1.33;;
82034;SDS011;71599;49.892;18.914;2023-07-28T00:27:01;2.38;;;1.65;;
82034;SDS011;71599;49.892;18.914;2023-07-28T00:32:02;3.60;;;1.30;;
82034;SDS011;71599;49.892;18.914;2023-07-28T00:37:04;1.73;;;1.63;;
82034;SDS011;71599;49.892;18.914;2023-07-28T00:42:06;6.10;;;1.65;;
82034;SDS011;71599;49.892;18.914;2023-07-28T00:47:07;2.90;;;1.50;;
82034;SDS011;71599;49.892;18.914;2023-07-28T00:52:08;3.08;;;1.65;;
82034;SDS011;71599;49.892;18.914;2023-07-28T00:57:11;3.28;;;2.10;;
82034;SDS011;71599;49.892;18.914;2023-07-28T01:02:13;1.60;;;1.48;;
82034;SDS011;71599;49.892;18.914;2023-07-28T01:07:15;2.53;;;1.95;;
82034;SDS011;71599;49.892;18.914;2023-07-28T01:12:25;3.30;;;1.77;;
82034;SDS011;71599;49.892;18.914;2023-07-28T01:17:26;1.60;;;1.13;;
82034;SDS011;71599;49.892;18.914;2023-07-28T01:22:35;2.38;;;1.55;;
82034;SDS011;71599;49.892;18.914;2023-07-28T01:27:48;1.90;;;1.30;;
82034;SDS011;71599;49.892;18.914;2023-07-28T01:32:50;2.38;;;1.50;;
82034;SDS011;71599;49.892;18.914;2023-07-28T01:37:51;1.85;;;1.38;;
82034;SDS011;71599;49.892;18.914;2023-07-28T01:42:53;1.90;;;1.30;;
82034;SDS011;71599;49.892;18.914;2023-07-28T01:47:54;3.28;;;1.52;;
82034;SDS011;71599;49.892;18.914;2023-07-28T01:52:55;2.50;;;1.50;;
82034;SDS011;71599;49.892;18.914;2023-07-28T01:57:58;1.88;;;1.50;;
82034;SDS011;71599;49.892;18.914;2023-07-28T02:03:00;2.55;;;1.38;;
82034;SDS011;71599;49.892;18.914;2023-07-28T02:08:01;1.63;;;1.40;;
82034;SDS011;71599;49.892;18.914;2023-07-28T02:13:04;2.25;;;1.73;;
82034;SDS011;71599;49.892;18.914;2023-07-28T02:18:04;2.15;;;1.60;;
82034;SDS011;71599;49.892;18.914;2023-07-28T02:23:05;2.17;;;1.63;;
82034;SDS011;71599;49.892;18.914;2023-07-28T02:28:09;2.47;;;1.55;;
82034;SDS011;71599;49.892;18.914;2023-07-28T02:33:11;1.58;;;1.20;;
82034;SDS011;71599;49.892;18.914;2023-07-28T02:38:12;2.67;;;1.33;;
82034;SDS011;71599;49.892;18.914;2023-07-28T02:43:14;4.25;;;1.38;;
82034;SDS011;71599;49.892;18.914;2023-07-28T02:48:15;2.13;;;1.58;;
82034;SDS011;71599;49.892;18.914;2023-07-28T02:53:16;3.25;;;1.52;;
82034;SDS011;71599;49.892;18.914;2023-07-28T02:58:19;2.10;;;1.70;;
82034;SDS011;71599;49.892;18.914;2023-07-28T03:03:20;1.88;;;1.48;;
82034;SDS011;71599;49.892;18.914;2023-07-28T03:08:20;2.97;;;1.20;;
82034;SDS011;71599;49.892;18.914;2023-07-28T03:13:23;3.00;;;1.73;;
82034;SDS011;71599;49.892;18.914;2023-07-28T03:18:24;2.00;;;1.35;;
82034;SDS011;71599;49.892;18.914;2023-07-28T03:23:25;1.65;;;1.30;;
82034;SDS011;71599;49.892;18.914;2023-07-28T03:28:27;2.45;;;1.30;;
82034;SDS011;71599;49.892;18.914;2023-07-28T03:33:28;1.80;;;1.40;;
82034;SDS011;71599;49.892;18.914;2023-07-28T03:38:29;3.72;;;1.25;;
82034;SDS011;71599;49.892;18.914;2023-07-28T03:43:31;2.45;;;2.05;;
82034;SDS011;71599;49.892;18.914;2023-07-28T03:48:32;2.75;;;1.73;;
82034;SDS011;71599;49.892;18.914;2023-07-28T03:53:33;1.92;;;1.40;;
82034;SDS011;71599;49.892;18.914;2023-07-28T03:58:36;1.92;;;1.40;;
82034;SDS011;71599;49.892;18.914;2023-07-28T04:03:37;2.33;;;1.52;;
82034;SDS011;71599;49.892;18.914;2023-07-28T04:08:38;2.35;;;1.52;;
82034;SDS011;71599;49.892;18.914;2023-07-28T04:13:40;2.83;;;1.70;;
82034;SDS011;71599;49.892;18.914;2023-07-28T04:18:41;3.40;;;1.80;;
82034;SDS011;71599;49.892;18.914;2023-07-28T04:23:42;1.52;;;1.33;;
82034;SDS011;71599;49.892;18.914;2023-07-28T04:28:44;3.90;;;1.88;;
82034;SDS011;71599;49.892;18.914;2023-07-28T04:33:45;2.13;;;1.40;;
82034;SDS011;71599;49.892;18.914;2023-07-28T04:38:47;1.90;;;1.50;;
82034;SDS011;71599;49.892;18.914;2023-07-28T04:43:49;1.90;;;1.52;;
82034;SDS011;71599;49.892;18.914;2023-07-28T04:48:50;3.10;;;2.00;;
82034;SDS011;71599;49.892;18.914;2023-07-28T04:53:51;1.95;;;1.52;;
82034;SDS011;71599;49.892;18.914;2023-07-28T04:58:53;2.00;;;1.60;;
82034;SDS011;71599;49.892;18.914;2023-07-28T05:03:54;4.95;;;1.70;;
82034;SDS011;71599;49.892;18.914;2023-07-28T05:08:55;2.67;;;1.52;;
82034;SDS011;71599;49.892;18.914;2023-07-28T05:13:57;3.25;;;1.67;;
82034;SDS011;71599;49.892;18.914;2023-07-28T05:18:58;2.75;;;2.00;;
82034;SDS011;71599;49.892;18.914;2023-07-28T05:23:59;2.15;;;1.77;;
82034;SDS011;71599;49.892;18.914;2023-07-28T05:29:02;2.95;;;1.90;;
82034;SDS011;71599;49.892;18.914;2023-07-28T05:34:03;2.67;;;1.90;;
82034;SDS011;71599;49.892;18.914;2023-07-28T05:39:04;2.03;;;1.77;;
82034;SDS011;71599;49.892;18.914;2023-07-28T05:44:06;2.75;;;1.83;;
82034;SDS011;71599;49.892;18.914;2023-07-28T05:49:07;2.80;;;2.00;;
82034;SDS011;71599;49.892;18.914;2023-07-28T05:54:08;2.08;;;1.85;;
82034;SDS011;71599;49.892;18.914;2023-07-28T05:59:11;3.30;;;2.55;;
82034;SDS011;71599;49.892;18.914;2023-07-28T06:04:12;4.30;;;2.20;;
82034;SDS011;71599;49.892;18.914;2023-07-28T06:09:16;2.70;;;1.92;;
82034;SDS011;71599;49.892;18.914;2023-07-28T06:14:18;2.63;;;1.80;;
82034;SDS011;71599;49.892;18.914;2023-07-28T06:19:19;3.33;;;1.98;;
82034;SDS011;71599;49.892;18.914;2023-07-28T06:24:20;2.63;;;1.80;;
82034;SDS011;71599;49.892;18.914;2023-07-28T06:29:22;2.45;;;1.60;;
82034;SDS011;71599;49.892;18.914;2023-07-28T06:34:23;3.15;;;1.92;;
82034;SDS011;71599;49.892;18.914;2023-07-28T06:39:24;3.15;;;2.13;;
82034;SDS011;71599;49.892;18.914;2023-07-28T06:44:27;3.97;;;2.13;;
82034;SDS011;71599;49.892;18.914;2023-07-28T06:49:28;3.55;;;2.20;;
82034;SDS011;71599;49.892;18.914;2023-07-28T06:54:29;3.45;;;2.10;;
82034;SDS011;71599;49.892;18.914;2023-07-28T06:59:31;2.35;;;1.77;;
82034;SDS011;71599;49.892;18.914;2023-07-28T07:04:32;3.55;;;2.08;;
82034;SDS011;71599;49.892;18.914;2023-07-28T07:09:33;1.95;;;1.55;;
82034;SDS011;71599;49.892;18.914;2023-07-28T07:14:35;2.25;;;1.67;;
82034;SDS011;71599;49.892;18.914;2023-07-28T07:19:36;1.23;;;1.13;;
82034;SDS011;71599;49.892;18.914;2023-07-28T07:24:37;2.42;;;1.58;;
82034;SDS011;71599;49.892;18.914;2023-07-28T07:29:40;2.17;;;1.17;;
82034;SDS011;71599;49.892;18.914;2023-07-28T07:34:41;1.17;;;0.93;;
82034;SDS011;71599;49.892;18.914;2023-07-28T07:39:42;1.58;;;1.20;;
82034;SDS011;71599;49.892;18.914;2023-07-28T07:44:44;2.53;;;1.58;;
82034;SDS011;71599;49.892;18.914;2023-07-28T07:49:45;1.75;;;1.33;;
82034;SDS011;71599;49.892;18.914;2023-07-28T07:54:46;4.57;;;1.95;;
82034;SDS011;71599;49.892;18.914;2023-07-28T07:59:48;1.58;;;1.48;;
82034;SDS011;71599;49.892;18.914;2023-07-28T08:04:49;1.98;;;1.40;;
82034;SDS011;71599;49.892;18.914;2023-07-28T08:09:52;2.05;;;1.85;;
82034;SDS011;71599;49.892;18.914;2023-07-28T08:14:54;2.30;;;1.80;;
82034;SDS011;71599;49.892;18.914;2023-07-28T08:19:55;2.53;;;1.92;;
82034;SDS011;71599;49.892;18.914;2023-07-28T08:24:56;1.50;;;1.40;;
82034;SDS011;71599;49.892;18.914;2023-07-28T08:29:58;2.55;;;1.85;;
82034;SDS011;71599;49.892;18.914;2023-07-28T08:34:59;3.92;;;1.85;;
82034;SDS011;71599;49.892;18.914;2023-07-28T08:40:00;1.77;;;1.67;;
82034;SDS011;71599;49.892;18.914;2023-07-28T08:45:03;2.28;;;2.08;;
82034;SDS011;71599;49.892;18.914;2023-07-28T08:50:05;3.47;;;2.25;;
82034;SDS011;71599;49.892;18.914;2023-07-28T08:55:07;1.58;;;1.48;;
82034;SDS011;71599;49.892;18.914;2023-07-28T09:00:11;2.42;;;1.70;;
82034;SDS011;71599;49.892;18.914;2023-07-28T09:05:17;2.60;;;2.40;;
82034;SDS011;71599;49.892;18.914;2023-07-28T09:10:18;2.65;;;2.45;;
82034;SDS011;71599;49.892;18.914;2023-07-28T09:15:21;2.72;;;1.67;;
82034;SDS011;71599;49.892;18.914;2023-07-28T09:20:21;1.60;;;1.50;;
82034;SDS011;71599;49.892;18.914;2023-07-28T09:25:22;2.08;;;1.73;;
82034;SDS011;71599;49.892;18.914;2023-07-28T09:30:25;4.10;;;2.45;;
82034;SDS011;71599;49.892;18.914;2023-07-28T09:35:26;2.55;;;2.00;;
82034;SDS011;71599;49.892;18.914;2023-07-28T09:40:27;2.60;;;2.25;;
82034;SDS011;71599;49.892;18.914;2023-07-28T09:45:30;3.97;;;1.92;;
82034;SDS011;71599;49.892;18.914;2023-07-28T09:50:32;2.40;;;2.05;;
82034;SDS011;71599;49.892;18.914;2023-07-28T09:55:34;2.75;;;1.83;;
82034;SDS011;71599;49.892;18.914;2023-07-28T10:00:37;4.90;;;2.25;;
82034;SDS011;71599;49.892;18.914;2023-07-28T10:05:38;2.95;;;2.25;;
82034;SDS011;71599;49.892;18.914;2023-07-28T10:10:40;3.13;;;2.65;;
82034;SDS011;71599;49.892;18.914;2023-07-28T10:15:42;3.38;;;2.70;;
82034;SDS011;71599;49.892;18.914;2023-07-28T10:20:46;2.22;;;2.03;;
82034;SDS011;71599;49.892;18.914;2023-07-28T10:25:47;2.25;;;1.50;;
82034;SDS011;71599;49.892;18.914;2023-07-28T10:30:59;2.35;;;1.67;;
82034;SDS011;71599;49.892;18.914;2023-07-28T10:36:11;3.38;;;1.85;;
82034;SDS011;71599;49.892;18.914;2023-07-28T10:46:19;1.42;;;1.13;;
82034;SDS011;71599;49.892;18.914;2023-07-28T10:51:22;1.95;;;1.40;;
82034;SDS011;71599;49.892;18.914;2023-07-28T10:56:24;2.05;;;1.52;;
82034;SDS011;71599;49.892;18.914;2023-07-28T11:01:31;2.03;;;1.45;;
82034;SDS011;71599;49.892;18.914;2023-07-28T11:06:32;2.45;;;1.38;;
82034;SDS011;71599;49.892;18.914;2023-07-28T11:11:33;1.15;;;0.90;;
82034;SDS011;71599;49.892;18.914;2023-07-28T11:16:37;1.65;;;0.70;;
82034;SDS011;71599;49.892;18.914;2023-07-28T11:21:39;0.50;;;0.30;;
82034;SDS011;71599;49.892;18.914;2023-07-28T11:26:40;0.57;;;0.47;;
82034;SDS011;71599;49.892;18.914;2023-07-28T11:31:43;0.98;;;0.68;;
82034;SDS011;71599;49.892;18.914;2023-07-28T11:36:44;1.35;;;0.52;;
82034;SDS011;71599;49.892;18.914;2023-07-28T11:41:45;1.25;;;0.50;;
82034;SDS011;71599;49.892;18.914;2023-07-28T11:46:47;0.77;;;0.60;;
82034;SDS011;71599;49.892;18.914;2023-07-28T11:51:49;1.20;;;0.52;;
82034;SDS011;71599;49.892;18.914;2023-07-28T11:56:53;1.00;;;0.60;;
82034;SDS011;71599;49.892;18.914;2023-07-28T12:01:57;0.68;;;0.60;;
82034;SDS011;71599;49.892;18.914;2023-07-28T12:07:06;2.05;;;1.40;;
82034;SDS011;71599;49.892;18.914;2023-07-28T12:12:08;1.08;;;0.60;;
82034;SDS011;71599;49.892;18.914;2023-07-28T12:17:13;1.85;;;0.70;;
82034;SDS011;71599;49.892;18.914;2023-07-28T12:22:14;1.58;;;0.80;;
82034;SDS011;71599;49.892;18.914;2023-07-28T12:27:15;2.58;;;0.90;;
82034;SDS011;71599;49.892;18.914;2023-07-28T12:32:17;1.42;;;0.70;;
82034;SDS011;71599;49.892;18.914;2023-07-28T12:37:19;1.92;;;1.00;;
82034;SDS011;71599;49.892;18.914;2023-07-28T12:42:20;4.07;;;1.13;;
82034;SDS011;71599;49.892;18.914;2023-07-28T12:47:22;2.20;;;0.75;;
82034;SDS011;71599;49.892;18.914;2023-07-28T12:52:24;1.15;;;0.70;;
82034;SDS011;71599;49.892;18.914;2023-07-28T12:57:25;2.10;;;0.80;;
82034;SDS011;71599;49.892;18.914;2023-07-28T13:02:27;1.08;;;0.95;;
82034;SDS011;71599;49.892;18.914;2023-07-28T13:07:28;1.38;;;0.70;;
82034;SDS011;71599;49.892;18.914;2023-07-28T13:12:29;3.17;;;0.80;;
82034;SDS011;71599;49.892;18.914;2023-07-28T13:17:31;1.02;;;0.93;;
82034;SDS011;71599;49.892;18.914;2023-07-28T13:22:32;0.95;;;0.63;;
82034;SDS011;71599;49.892;18.914;2023-07-28T13:27:33;1.30;;;0.52;;
82034;SDS011;71599;49.892;18.914;2023-07-28T13:32:36;0.43;;;0.40;;
82034;SDS011;71599;49.892;18.914;2023-07-28T13:37:37;1.48;;;0.50;;
82034;SDS011;71599;49.892;18.914;2023-07-28T13:42:38;0.70;;;0.47;;
82034;SDS011;71599;49.892;18.914;2023-07-28T13:47:40;3.38;;;0.63;;
82034;SDS011;71599;49.892;18.914;2023-07-28T13:52:42;0.55;;;0.50;;
82034;SDS011;71599;49.892;18.914;2023-07-28T13:57:43;0.45;;;0.40;;
82034;SDS011;71599;49.892;18.914;2023-07-28T14:02:45;2.15;;;0.88;;
82034;SDS011;71599;49.892;18.914;2023-07-28T14:07:46;0.57;;;0.30;;
82034;SDS011;71599;49.892;18.914;2023-07-28T14:12:47;0.40;;;0.30;;
82034;SDS011;71599;49.892;18.914;2023-07-28T14:17:49;2.42;;;0.95;;
82034;SDS011;71599;49.892;18.914;2023-07-28T14:22:50;0.93;;;0.60;;
82034;SDS011;71599;49.892;18.914;2023-07-28T14:27:51;0.80;;;0.73;;
82034;SDS011;71599;49.892;18.914;2023-07-28T14:32:54;2.17;;;0.95;;
82034;SDS011;71599;49.892;18.914;2023-07-28T14:37:55;0.80;;;0.80;;
82034;SDS011;71599;49.892;18.914;2023-07-28T14:42:56;2.00;;;1.02;;
82034;SDS011;71599;49.892;18.914;2023-07-28T14:47:58;1.58;;;0.93;;
82034;SDS011;71599;49.892;18.914;2023-07-28T14:52:59;2.42;;;1.30;;
82034;SDS011;71599;49.892;18.914;2023-07-28T14:58:00;2.17;;;1.20;;
82034;SDS011;71599;49.892;18.914;2023-07-28T15:03:03;2.10;;;1.55;;
82034;SDS011;71599;49.892;18.914;2023-07-28T15:08:04;2.20;;;1.95;;
82034;SDS011;71599;49.892;18.914;2023-07-28T15:13:05;1.40;;;1.02;;
82034;SDS011;71599;49.892;18.914;2023-07-28T15:18:07;0.85;;;0.85;;
82034;SDS011;71599;49.892;18.914;2023-07-28T15:23:08;1.65;;;0.90;;
82034;SDS011;71599;49.892;18.914;2023-07-28T15:28:10;4.65;;;1.63;;
82034;SDS011;71599;49.892;18.914;2023-07-28T15:33:12;2.38;;;1.70;;
82034;SDS011;71599;49.892;18.914;2023-07-28T15:38:13;2.17;;;1.33;;
82034;SDS011;71599;49.892;18.914;2023-07-28T15:43:14;3.55;;;1.67;;
82034;SDS011;71599;49.892;18.914;2023-07-28T15:48:17;2.72;;;1.30;;
82034;SDS011;71599;49.892;18.914;2023-07-28T15:53:18;1.70;;;1.23;;
82034;SDS011;71599;49.892;18.914;2023-07-28T15:58:19;2.30;;;1.50;;
82034;SDS011;71599;49.892;18.914;2023-07-28T16:03:21;1.60;;;1.23;;
82034;SDS011;71599;49.892;18.914;2023-07-28T16:08:22;1.42;;;1.00;;
82034;SDS011;71599;49.892;18.914;2023-07-28T16:13:23;1.90;;;1.30;;
82034;SDS011;71599;49.892;18.914;2023-07-28T16:18:25;2.10;;;1.35;;
82034;SDS011;71599;49.892;18.914;2023-07-28T16:23:26;2.25;;;1.50;;
82034;SDS011;71599;49.892;18.914;2023-07-28T16:28:27;1.95;;;1.50;;
82034;SDS011;71599;49.892;18.914;2023-07-28T16:33:30;2.10;;;1.27;;
82034;SDS011;71599;49.892;18.914;2023-07-28T16:38:31;2.55;;;1.50;;
82034;SDS011;71599;49.892;18.914;2023-07-28T16:43:32;2.40;;;1.38;;
82034;SDS011;71599;49.892;18.914;2023-07-28T16:48:34;1.38;;;1.27;;
82034;SDS011;71599;49.892;18.914;2023-07-28T16:53:35;3.33;;;1.88;;
82034;SDS011;71599;49.892;18.914;2023-07-28T16:58:36;2.85;;;1.92;;
82034;SDS011;71599;49.892;18.914;2023-07-28T17:03:39;9.93;;;5.43;;
82034;SDS011;71599;49.892;18.914;2023-07-28T17:08:40;3.17;;;2.33;;
82034;SDS011;71599;49.892;18.914;2023-07-28T17:13:41;4.63;;;1.90;;
82034;SDS011;71599;49.892;18.914;2023-07-28T17:18:43;7.53;;;4.38;;
82034;SDS011;71599;49.892;18.914;2023-07-28T17:23:44;4.05;;;2.53;;
82034;SDS011;71599;49.892;18.914;2023-07-28T17:28:45;8.13;;;5.28;;
82034;SDS011;71599;49.892;18.914;2023-07-28T17:33:48;4.38;;;2.90;;
82034;SDS011;71599;49.892;18.914;2023-07-28T17:38:49;6.30;;;4.05;;
82034;SDS011;71599;49.892;18.914;2023-07-28T17:43:50;3.33;;;3.00;;
82034;SDS011;71599;49.892;18.914;2023-07-28T17:48:52;3.22;;;2.17;;
82034;SDS011;71599;49.892;18.914;2023-07-28T17:53:53;2.95;;;2.28;;
82034;SDS011;71599;49.892;18.914;2023-07-28T17:58:54;2.70;;;1.98;;
82034;SDS011;71599;49.892;18.914;2023-07-28T18:03:56;2.15;;;1.77;;
82034;SDS011;71599;49.892;18.914;2023-07-28T18:08:57;3.15;;;1.88;;
82034;SDS011;71599;49.892;18.914;2023-07-28T18:13:58;2.40;;;1.92;;
82034;SDS011;71599;49.892;18.914;2023-07-28T18:19:00;3.50;;;1.92;;
82034;SDS011;71599;49.892;18.914;2023-07-28T18:24:02;2.47;;;1.73;;
82034;SDS011;71599;49.892;18.914;2023-07-28T18:29:03;4.25;;;2.20;;
82034;SDS011;71599;49.892;18.914;2023-07-28T18:34:05;5.00;;;3.28;;
82034;SDS011;71599;49.892;18.914;2023-07-28T18:39:06;3.20;;;2.47;;
82034;SDS011;71599;49.892;18.914;2023-07-28T18:44:07;5.05;;;2.13;;
82034;SDS011;71599;49.892;18.914;2023-07-28T18:49:09;2.70;;;1.92;;
82034;SDS011;71599;49.892;18.914;2023-07-28T18:54:10;6.15;;;2.42;;
82034;SDS011;71599;49.892;18.914;2023-07-28T18:59:11;3.65;;;3.10;;
82034;SDS011;71599;49.892;18.914;2023-07-28T19:04:14;3.38;;;2.85;;
82034;SDS011;71599;49.892;18.914;2023-07-28T19:09:15;7.97;;;3.20;;
82034;SDS011;71599;49.892;18.914;2023-07-28T19:14:16;2.65;;;2.10;;
82034;SDS011;71599;49.892;18.914;2023-07-28T19:19:18;2.33;;;1.80;;
82034;SDS011;71599;49.892;18.914;2023-07-28T19:24:19;2.53;;;2.33;;
82034;SDS011;71599;49.892;18.914;2023-07-28T19:29:20;1.90;;;1.67;;
82034;SDS011;71599;49.892;18.914;2023-07-28T19:34:22;3.70;;;2.92;;
82034;SDS011;71599;49.892;18.914;2023-07-28T19:39:23;3.08;;;2.78;;
82034;SDS011;71599;49.892;18.914;2023-07-28T19:44:24;3.28;;;2.97;;
82034;SDS011;71599;49.892;18.914;2023-07-28T19:49:27;4.00;;;2.95;;
82034;SDS011;71599;49.892;18.914;2023-07-28T19:54:28;2.60;;;2.33;;
82034;SDS011;71599;49.892;18.914;2023-07-28T19:59:29;2.00;;;1.77;;
82034;SDS011;71599;49.892;18.914;2023-07-28T20:04:31;2.08;;;1.90;;
82034;SDS011;71599;49.892;18.914;2023-07-28T20:09:32;4.78;;;2.17;;
82034;SDS011;71599;49.892;18.914;2023-07-28T20:14:34;2.58;;;2.15;;
82034;SDS011;71599;49.892;18.914;2023-07-28T20:19:36;2.00;;;1.80;;
82034;SDS011;71599;49.892;18.914;2023-07-28T20:24:37;1.70;;;1.60;;
82034;SDS011;71599;49.892;18.914;2023-07-28T20:29:38;3.83;;;2.10;;
82034;SDS011;71599;49.892;18.914;2023-07-28T20:34:40;2.35;;;1.90;;
82034;SDS011;71599;49.892;18.914;2023-07-28T20:39:41;2.60;;;2.05;;
82034;SDS011;71599;49.892;18.914;2023-07-28T20:44:42;2.10;;;1.80;;
82034;SDS011;71599;49.892;18.914;2023-07-28T20:49:45;3.78;;;2.55;;
82034;SDS011;71599;49.892;18.914;2023-07-28T20:54:46;6.25;;;2.70;;
82034;SDS011;71599;49.892;18.914;2023-07-28T20:59:47;3.17;;;2.03;;
82034;SDS011;71599;49.892;18.914;2023-07-28T21:04:49;2.67;;;2.30;;
82034;SDS011;71599;49.892;18.914;2023-07-28T21:09:50;2.38;;;2.15;;
82034;SDS011;71599;49.892;18.914;2023-07-28T21:14:54;3.80;;;2.63;;
82034;SDS011;71599;49.892;18.914;2023-07-28T21:19:57;4.13;;;2.03;;
82034;SDS011;71599;49.892;18.914;2023-07-28T21:24:58;2.70;;;1.65;;
82034;SDS011;71599;49.892;18.914;2023-07-28T21:29:59;2.22;;;2.00;;
82034;SDS011;71599;49.892;18.914;2023-07-28T21:35:02;2.15;;;1.75;;
82034;SDS011;71599;49.892;18.914;2023-07-28T21:40:03;3.25;;;2.35;;
82034;SDS011;71599;49.892;18.914;2023-07-28T21:45:05;2.78;;;2.08;;
82034;SDS011;71599;49.892;18.914;2023-07-28T21:50:08;2.15;;;1.95;;
82034;SDS011;71599;49.892;18.914;2023-07-28T21:55:10;2.90;;;1.90;;
82034;SDS011;71599;49.892;18.914;2023-07-28T22:00:11;3.20;;;2.28;;
82034;SDS011;71599;49.892;18.914;2023-07-28T22:05:14;2.72;;;2.15;;
82034;SDS011;71599;49.892;18.914;2023-07-28T22:10:15;3.28;;;2.55;;
82034;SDS011;71599;49.892;18.914;2023-07-28T22:15:16;2.60;;;2.28;;
82034;SDS011;71599;49.892;18.914;2023-07-28T22:20:19;3.25;;;2.60;;
82034;SDS011;71599;49.892;18.914;2023-07-28T22:25:20;4.15;;;2.97;;
82034;SDS011;71599;49.892;18.914;2023-07-28T22:30:21;3.47;;;2.85;;
82034;SDS011;71599;49.892;18.914;2023-07-28T22:35:24;4.57;;;2.55;;
82034;SDS011;71599;49.892;18.914;2023-07-28T22:40:25;5.80;;;3.40;;
82034;SDS011;71599;49.892;18.914;2023-07-28T22:45:26;2.97;;;2.67;;
82034;SDS011;71599;49.892;18.914;2023-07-28T22:50:28;3.88;;;2.70;;
82034;SDS011;71599;49.892;18.914;2023-07-28T22:55:29;3.20;;;2.40;;
82034;SDS011;71599;49.892;18.914;2023-07-28T23:00:30;2.28;;;2.08;;
82034;SDS011;71599;49.892;18.914;2023-07-28T23:05:32;3.13;;;2.75;;
82034;SDS011;71599;49.892;18.914;2023-07-28T23:10:33;2.28;;;2.08;;
82034;SDS011;71599;49.892;18.914;2023-07-28T23:15:34;3.10;;;2.55;;
82034;SDS011;71599;49.892;18.914;2023-07-28T23:20:36;3.22;;;2.35;;
82034;SDS011;71599;49.892;18.914;2023-07-28T23:25:37;2.67;;;2.13;;
82034;SDS011;71599;49.892;18.914;2023-07-28T23:30:38;2.28;;;2.08;;
82034;SDS011;71599;49.892;18.914;2023-07-28T23:35:40;4.28;;;2.53;;
82034;SDS011;71599;49.892;18.914;2023-07-28T23:40:41;2.85;;;2.63;;
82034;SDS011;71599;49.892;18.914;2023-07-28T23:45:42;3.95;;;2.55;;
82034;SDS011;71599;49.892;18.914;2023-07-28T23:50:45;5.32;;;2.70;;
82034;SDS011;71599;49.892;18.914;2023-07-28T23:55:46;3.05;;;2.30;;
